Time;durP1;ratioP1;P1;durP2;ratioP2;P2;SDS_P1;SDS_P2;PMS_P1;PMS_P2;Temp;Humidity;BMP_temperature;BMP_pressure;BME280_temperature;BME280_humidity;BME280_pressure;Samples;Min_cycle;Max_cycle;Signal;HPM_P1;HPM_P2
2020/12/30 00:01:51;;;;;;;19.17;11.45;;;;;;;5.43;89.45;99323.94;124376;1148;23482;-62
2020/12/30 00:04:39;;;;;;;20.52;9.30;;;;;;;5.45;89.88;99326.42;124382;1148;23518;-62
2020/12/30 00:07:26;;;;;;;21.95;11.50;;;;;;;5.47;89.89;99329.72;124462;1146;22628;-62
2020/12/30 00:10:17;;;;;;;15.70;8.85;;;;;;;5.48;89.56;99332.16;124438;1146;22717;-62
2020/12/30 00:13:05;;;;;;;18.37;9.90;;;;;;;5.51;89.85;99341.69;124401;1148;22710;-62
2020/12/30 00:15:53;;;;;;;17.43;9.23;;;;;;;5.52;89.57;99346.88;124517;1146;22764;-62
2020/12/30 00:18:41;;;;;;;11.38;7.70;;;;;;;5.52;89.67;99346.88;124580;1148;22660;-62
2020/12/30 00:21:28;;;;;;;23.22;11.48;;;;;;;5.53;89.71;99347.70;124444;1146;22663;-62
2020/12/30 00:24:16;;;;;;;10.55;7.45;;;;;;;5.54;90.22;99354.75;124327;1147;22717;-62
2020/12/30 00:27:04;;;;;;;79.20;23.22;;;;;;;5.53;89.79;99350.40;124418;1148;23205;-62
2020/12/30 00:29:52;;;;;;;90.15;28.95;;;;;;;5.54;90.17;99336.66;124497;1146;23278;-62
2020/12/30 00:32:41;;;;;;;242.45;64.12;;;;;;;5.54;89.23;99333.13;124379;1148;22735;-62
2020/12/30 00:35:28;;;;;;;26.73;11.63;;;;;;;5.54;89.60;99344.77;123749;1147;22926;-62
2020/12/30 00:38:17;;;;;;;12.65;7.50;;;;;;;5.54;89.65;99347.47;119635;1148;27348;-61
2020/12/30 00:41:05;;;;;;;25.20;11.30;;;;;;;5.55;90.01;99351.00;119972;1151;22923;-61
2020/12/30 00:43:53;;;;;;;9.40;6.62;;;;;;;5.52;90.05;99340.64;124199;1149;23296;-62
2020/12/30 00:46:41;;;;;;;64.03;19.85;;;;;;;5.51;89.56;99338.99;124427;1146;23294;-62
2020/12/30 00:49:28;;;;;;;88.05;27.62;;;;;;;5.50;89.70;99340.87;124202;1148;22657;-62
2020/12/30 00:52:16;;;;;;;19.90;11.00;;;;;;;5.49;89.44;99341.92;124365;1148;23368;-62
2020/12/30 00:55:04;;;;;;;11.00;7.10;;;;;;;5.49;89.87;99344.63;124262;1148;22794;-62
2020/12/30 00:58:00;;;;;;;10.20;5.90;;;;;;;5.48;90.09;99344.87;124285;1147;23297;-62
2020/12/30 01:00:49;;;;;;;9.85;6.90;;;;;;;5.47;90.08;99345.93;124291;1148;22675;-62
2020/12/30 01:03:55;;;;;;;8.90;5.83;;;;;;;5.43;89.77;99350.95;124428;1148;22682;-62
2020/12/30 01:06:47;;;;;;;;;;;;;;;5.42;89.67;99338.50;121617;1149;26388;-61
2020/12/30 01:09:35;;;;;;;9.40;6.90;;;;;;;5.41;89.45;99342.25;120030;1151;21559;-61
2020/12/30 01:12:24;;;;;;;12.10;8.25;;;;;;;5.41;89.48;99347.66;120057;1148;27555;-61
2020/12/30 01:15:13;;;;;;;15.05;8.50;;;;;;;5.40;90.08;99346.01;120108;1151;22924;-61
2020/12/30 01:18:01;;;;;;;14.60;7.10;;;;;;;5.41;89.76;99346.83;120115;1148;22950;-61
2020/12/30 01:20:49;;;;;;;11.45;6.50;;;;;;;5.41;89.34;99352.23;120153;1148;22917;-61
2020/12/30 01:23:38;;;;;;;11.00;6.73;;;;;;;5.41;89.68;99350.36;124522;1148;22779;-62
2020/12/30 01:26:26;;;;;;;7.87;5.33;;;;;;;5.42;89.68;99343.91;124314;1148;22687;-62
2020/12/30 01:29:14;;;;;;;10.55;6.37;;;;;;;5.44;89.66;99349.91;124315;1148;22645;-62
2020/12/30 01:32:02;;;;;;;11.30;6.65;;;;;;;5.48;90.17;99352.98;124374;1148;22750;-62
2020/12/30 01:34:50;;;;;;;9.85;6.75;;;;;;;5.48;89.57;99356.48;124270;1145;23483;-62
2020/12/30 01:37:38;;;;;;;8.60;6.25;;;;;;;5.50;89.66;99353.55;124421;1148;22705;-62
2020/12/30 01:40:26;;;;;;;;;;;;;;;5.52;90.23;99348.75;124378;1148;22753;-62
2020/12/30 01:43:13;;;;;;;11.30;6.93;;;;;;;5.52;90.18;99340.64;124475;1148;21464;-62
2020/12/30 01:46:01;;;;;;;26.00;13.80;;;;;;;5.53;89.88;99336.89;124424;1147;22701;-63
2020/12/30 01:48:49;;;;;;;20.45;10.55;;;;;;;5.56;90.55;99333.73;124463;1148;22659;-62
2020/12/30 01:51:38;;;;;;;23.22;13.08;;;;;;;5.57;90.30;99330.80;124236;1149;22681;-62
2020/12/30 01:54:27;;;;;;;18.65;12.30;;;;;;;5.62;89.82;99332.83;124584;1148;22687;-63
2020/12/30 01:57:14;;;;;;;12.60;8.27;;;;;;;5.65;90.28;99330.46;124316;1148;22709;-62
2020/12/30 02:00:04;;;;;;;13.50;9.30;;;;;;;5.67;89.80;99328.36;124320;1149;22693;-63
2020/12/30 02:02:56;;;;;;;12.10;8.35;;;;;;;5.70;89.61;99332.48;124231;1149;23251;-62
2020/12/30 02:05:43;;;;;;;20.87;12.90;;;;;;;5.73;90.34;99340.14;124267;1149;22768;-63
2020/12/30 02:08:31;;;;;;;26.02;14.47;;;;;;;5.75;89.95;99338.03;124485;1148;22694;-62
2020/12/30 02:11:21;;;;;;;18.32;9.95;;;;;;;5.78;90.68;99332.14;124199;1149;23453;-62
2020/12/30 02:14:11;;;;;;;20.90;11.70;;;;;;;5.81;90.05;99326.27;124341;1148;23527;-63
2020/12/30 02:16:59;;;;;;;21.97;12.13;;;;;;;5.84;90.07;99322.29;124301;1148;22727;-62
2020/12/30 02:19:47;;;;;;;21.50;12.43;;;;;;;5.85;89.59;99332.88;124328;1149;22689;-62
2020/12/30 02:22:34;;;;;;;26.42;14.87;;;;;;;5.88;90.32;99331.59;124392;1148;22823;-62
2020/12/30 02:25:22;;;;;;;;;;;;;;;5.90;89.97;99329.52;124359;1149;22685;-62
2020/12/30 02:28:13;;;;;;;22.00;12.45;;;;;;;5.89;90.27;99317.05;124318;1149;21490;-62
2020/12/30 02:31:00;;;;;;;21.65;12.65;;;;;;;5.91;90.22;99321.17;124168;1149;22664;-62
2020/12/30 02:33:48;;;;;;;23.07;12.20;;;;;;;5.90;90.14;99322.23;124375;1148;22881;-62
2020/12/30 02:36:36;;;;;;;;;;;;;;;5.91;89.68;99328.46;124300;1148;22663;-62
2020/12/30 02:39:24;;;;;;;21.70;11.53;;;;;;;5.90;90.00;99324.11;124419;1148;21479;-62
2020/12/30 02:42:11;;;;;;;19.65;11.83;;;;;;;5.88;89.28;99323.48;124173;1149;22710;-63
2020/12/30 02:45:03;;;;;;;15.77;10.00;;;;;;;5.87;89.55;99324.53;124483;1149;22643;-62
2020/12/30 02:47:51;;;;;;;22.15;13.70;;;;;;;5.86;89.65;99323.70;124194;1149;22682;-63
2020/12/30 02:50:38;;;;;;;21.27;13.75;;;;;;;5.86;89.32;99323.70;124244;1149;22682;-62
2020/12/30 02:53:26;;;;;;;20.23;12.28;;;;;;;5.87;89.65;99319.12;124309;1148;22682;-62
2020/12/30 02:56:14;;;;;;;19.92;12.45;;;;;;;5.88;90.06;99329.74;124246;1149;23387;-62
2020/12/30 02:59:02;;;;;;;;;;;;;;;5.89;89.94;99319.75;124321;1148;22694;-63
2020/12/30 03:01:49;;;;;;;24.40;13.50;;;;;;;5.88;89.56;99318.93;124393;1148;21441;-62
2020/12/30 03:04:37;;;;;;;21.80;12.95;;;;;;;5.88;89.92;99320.78;124314;1148;22665;-62
2020/12/30 03:07:25;;;;;;;20.55;13.32;;;;;;;5.88;89.73;99318.07;124298;1148;22656;-62
2020/12/30 03:10:12;;;;;;;19.42;13.58;;;;;;;5.86;89.76;99314.77;124399;1148;23127;-62
2020/12/30 03:13:00;;;;;;;23.02;14.73;;;;;;;5.85;89.58;99313.13;124338;1148;23383;-62
2020/12/30 03:15:48;;;;;;;23.70;15.13;;;;;;;5.83;89.24;99316.05;122334;1148;22926;-62
2020/12/30 03:18:36;;;;;;;23.43;15.60;;;;;;;5.80;88.97;99311.11;120131;1148;23068;-61
2020/12/30 03:21:24;;;;;;;26.23;15.87;;;;;;;5.79;89.61;99317.56;119830;1148;22939;-62
2020/12/30 03:24:13;;;;;;;23.13;16.23;;;;;;;5.74;89.62;99303.94;119925;1148;22933;-61
2020/12/30 03:27:01;;;;;;;27.00;16.50;;;;;;;5.69;89.35;99298.40;119693;1148;27302;-62
2020/12/30 03:29:50;;;;;;;23.60;15.85;;;;;;;5.65;89.31;99289.09;119736;1148;22988;-61
2020/12/30 03:32:38;;;;;;;21.75;15.30;;;;;;;5.59;88.85;99290.04;119699;1150;23493;-61
2020/12/30 03:35:26;;;;;;;24.30;15.80;;;;;;;5.51;88.84;99293.88;119812;1151;22862;-61
2020/12/30 03:38:15;;;;;;;21.20;15.45;;;;;;;5.44;89.14;99289.64;119726;1148;22941;-62
2020/12/30 03:41:03;;;;;;;21.87;14.47;;;;;;;5.42;89.15;99294.45;119696;1150;23411;-61
2020/12/30 03:43:52;;;;;;;24.70;15.75;;;;;;;5.38;89.61;99283.27;119669;1151;23061;-62
2020/12/30 03:46:40;;;;;;;23.13;13.83;;;;;;;5.36;89.21;99282.67;119773;1148;26338;-61
2020/12/30 03:49:28;;;;;;;21.33;14.83;;;;;;;5.33;89.84;99283.98;124359;1149;22771;-62
2020/12/30 03:52:16;;;;;;;23.52;14.40;;;;;;;5.32;89.32;99278.80;124310;1149;22701;-62
2020/12/30 03:55:04;;;;;;;22.65;16.35;;;;;;;5.31;89.41;99291.48;124365;1149;22732;-63
2020/12/30 03:57:51;;;;;;;23.55;15.72;;;;;;;5.30;89.40;99297.12;124384;1149;23315;-62
2020/12/30 04:00:39;;;;;;;21.07;14.60;;;;;;;5.30;89.80;99297.12;124430;1149;22693;-62
2020/12/30 04:03:27;;;;;;;23.80;14.87;;;;;;;5.29;89.79;99293.59;124498;1148;22701;-62
2020/12/30 04:06:15;;;;;;;22.70;14.85;;;;;;;5.26;89.83;99288.64;124343;1149;22742;-62
2020/12/30 04:09:02;;;;;;;23.25;16.02;;;;;;;5.25;89.08;99299.67;124407;1149;22697;-62
2020/12/30 04:11:50;;;;;;;24.07;15.70;;;;;;;5.23;89.15;99296.37;124421;1149;22692;-62
2020/12/30 04:14:38;;;;;;;;;;;;;;;5.24;89.44;99306.13;124424;1149;23663;-62
2020/12/30 04:17:25;;;;;;;26.65;16.50;;;;;;;5.22;89.32;99305.52;124311;1149;21945;-62
2020/12/30 04:20:13;;;;;;;30.52;17.85;;;;;;;5.20;89.47;99311.15;124398;1148;22790;-62
2020/12/30 04:23:01;;;;;;;34.80;22.77;;;;;;;5.21;90.04;99314.67;124458;1148;23414;-63
2020/12/30 04:25:49;;;;;;;;;;;;;;;5.19;89.47;99312.23;124498;1146;22700;-62
2020/12/30 04:28:36;;;;;;;26.15;16.25;;;;;;;5.19;89.70;99314.93;124464;1146;21420;-62
2020/12/30 04:31:24;;;;;;;29.70;17.57;;;;;;;5.20;89.05;99305.75;124525;1148;22756;-62
2020/12/30 04:34:12;;;;;;;26.25;17.10;;;;;;;5.20;89.95;99302.22;124511;1146;22945;-62
2020/12/30 04:37:00;;;;;;;24.90;16.35;;;;;;;5.19;89.49;99304.12;124344;1146;22682;-62
2020/12/30 04:39:49;;;;;;;24.35;16.35;;;;;;;5.19;89.16;99304.12;124349;1147;22817;-62
2020/12/30 04:42:37;;;;;;;22.10;14.50;;;;;;;5.19;89.18;99298.73;124391;1147;22778;-62
2020/12/30 04:45:26;;;;;;;22.00;15.30;;;;;;;5.15;89.01;99297.53;124355;1147;23425;-63
2020/12/30 04:48:14;;;;;;;22.13;16.27;;;;;;;5.14;89.89;99301.28;124296;1147;23536;-63
2020/12/30 04:51:03;;;;;;;30.05;21.20;;;;;;;5.13;89.13;99302.33;124506;1146;22752;-62
2020/12/30 04:53:59;;;;;;;22.90;15.40;;;;;;;5.11;89.11;99293.63;124478;1147;22720;-63
2020/12/30 04:57:00;;;;;;;21.15;14.35;;;;;;;5.09;89.27;99294.90;124574;1146;23409;-62
2020/12/30 04:59:48;;;;;;;21.45;14.55;;;;;;;5.05;89.32;99289.12;124416;1146;22779;-62
2020/12/30 05:02:37;;;;;;;19.70;13.80;;;;;;;5.03;89.34;99282.33;124513;1147;23300;-62
2020/12/30 05:05:26;;;;;;;19.73;14.00;;;;;;;5.01;89.59;99284.43;123777;1147;22736;-65
2020/12/30 05:08:15;;;;;;;20.85;13.85;;;;;;;5.00;89.37;99290.88;119900;1148;22938;-65
2020/12/30 05:11:05;;;;;;;18.70;13.60;;;;;;;4.99;89.08;99295.45;120293;1148;22970;-65
2020/12/30 05:13:54;;;;;;;19.23;14.03;;;;;;;4.99;89.01;99284.66;124252;1147;23506;-65
2020/12/30 05:16:44;;;;;;;19.95;14.15;;;;;;;5.00;89.52;99299.80;124451;1148;22749;-65
2020/12/30 05:19:33;;;;;;;18.35;13.25;;;;;;;5.01;89.36;99311.42;124362;1147;22729;-65
2020/12/30 05:22:21;;;;;;;20.35;14.20;;;;;;;5.00;90.00;99307.08;124451;1147;22844;-65
2020/12/30 05:25:09;;;;;;;21.00;14.85;;;;;;;5.02;89.29;99310.38;124394;1147;22631;-65
2020/12/30 05:27:59;;;;;;;18.00;12.55;;;;;;;5.02;89.47;99316.60;124381;1146;22758;-65
2020/12/30 05:30:48;;;;;;;36.00;23.73;;;;;;;5.02;89.34;99313.91;124360;1147;22694;-65
2020/12/30 05:33:37;;;;;;;69.00;30.80;;;;;;;5.05;89.39;99313.42;124439;1147;22820;-65
2020/12/30 05:36:25;;;;;;;31.90;18.95;;;;;;;5.06;89.26;99328.58;124520;1147;22762;-65
2020/12/30 05:39:21;;;;;;;37.15;22.30;;;;;;;5.08;89.76;99318.38;124423;1145;23416;-61
2020/12/30 05:42:19;;;;;;;31.93;18.20;;;;;;;5.09;90.15;99316.50;124268;1147;22690;-61
2020/12/30 05:45:09;;;;;;;56.08;26.00;;;;;;;5.09;89.75;99317.33;124327;1146;23396;-61
2020/12/30 05:47:58;;;;;;;26.33;17.57;;;;;;;5.09;89.74;99322.73;124468;1145;22782;-61
2020/12/30 05:50:56;;;;;;;56.35;27.10;;;;;;;5.10;89.64;99327.08;124316;1148;23511;-61
2020/12/30 05:53:44;;;;;;;44.85;24.52;;;;;;;5.11;89.05;99331.43;124557;1145;22731;-61
2020/12/30 05:56:32;;;;;;;64.80;32.28;;;;;;;5.13;89.67;99339.30;124675;1146;22680;-61
2020/12/30 05:59:19;;;;;;;35.08;20.72;;;;;;;5.14;89.60;99339.09;124375;1147;22696;-61
2020/12/30 06:02:29;;;;;;;33.87;21.20;;;;;;;5.16;90.04;99339.69;124381;1145;22719;-61
2020/12/30 06:05:17;;;;;;;35.75;22.45;;;;;;;5.18;89.42;99342.16;124619;1146;22759;-61
2020/12/30 06:08:05;;;;;;;24.85;17.10;;;;;;;5.21;89.58;99347.08;124652;1147;22718;-61
2020/12/30 06:10:53;;;;;;;49.60;28.17;;;;;;;5.23;89.70;99334.18;124534;1147;22737;-61
2020/12/30 06:13:41;;;;;;;28.05;17.10;;;;;;;5.24;89.00;99343.94;124387;1148;22742;-61
2020/12/30 06:16:29;;;;;;;22.60;15.35;;;;;;;5.24;89.56;99343.94;121832;1148;22949;-61
2020/12/30 06:19:17;;;;;;;38.50;22.90;;;;;;;5.23;88.90;99344.98;124523;1147;23371;-61
2020/12/30 06:22:05;;;;;;;31.77;20.57;;;;;;;5.21;89.24;99350.61;124635;1145;22692;-61
2020/12/30 06:24:56;;;;;;;28.73;19.87;;;;;;;5.18;89.34;99352.97;124578;1147;23452;-61
2020/12/30 06:27:43;;;;;;;25.15;17.75;;;;;;;5.16;88.86;99350.48;124613;1147;22740;-61
2020/12/30 06:30:31;;;;;;;25.32;18.50;;;;;;;5.14;89.47;99344.48;124436;1145;22886;-61
2020/12/30 06:33:22;;;;;;;22.73;16.40;;;;;;;5.12;89.20;99340.36;124270;1145;22713;-61
2020/12/30 06:36:10;;;;;;;21.20;14.80;;;;;;;5.12;89.79;99337.66;124668;1146;22706;-61
2020/12/30 06:38:58;;;;;;;32.70;21.20;;;;;;;5.10;89.76;99339.75;124570;1147;22708;-61
2020/12/30 06:42:02;;;;;;;26.40;16.30;;;;;;;5.13;89.69;99333.91;124671;1146;22722;-61
2020/12/30 06:44:49;;;;;;;23.87;16.33;;;;;;;5.15;89.75;99335.33;124630;1147;24312;-61
2020/12/30 06:47:56;;;;;;;26.17;16.73;;;;;;;5.19;89.63;99330.31;124495;1147;23463;-61
2020/12/30 06:50:44;;;;;;;21.05;14.20;;;;;;;5.18;89.65;99317.86;124346;1146;22679;-61
2020/12/30 06:53:32;;;;;;;24.10;14.25;;;;;;;5.20;90.12;99313.02;124636;1146;22691;-61
2020/12/30 06:56:47;;;;;;;20.60;14.20;;;;;;;5.23;89.25;99317.98;124622;1147;22726;-61
2020/12/30 06:59:35;;;;;;;20.65;15.20;;;;;;;5.24;90.05;99308.83;124364;1147;23510;-61
2020/12/30 07:02:22;;;;;;;20.55;15.25;;;;;;;5.22;89.77;99311.75;124625;1147;22677;-61
2020/12/30 07:05:10;;;;;;;25.45;15.95;;;;;;;5.20;90.03;99313.02;124448;1146;23471;-61
2020/12/30 07:07:58;;;;;;;22.22;14.25;;;;;;;5.16;90.11;99317.25;124195;1148;22740;-61
2020/12/30 07:10:45;;;;;;;19.42;14.35;;;;;;;5.14;89.66;99316.66;124623;1146;22691;-61
2020/12/30 07:13:40;;;;;;;18.92;13.35;;;;;;;5.13;89.76;99313.13;124529;1145;22677;-61
2020/12/30 07:16:32;;;;;;;19.07;13.03;;;;;;;5.12;89.62;99316.88;124362;1147;22862;-61
2020/12/30 07:19:22;;;;;;;17.90;13.07;;;;;;;5.09;89.78;99322.73;124534;1147;22839;-61
2020/12/30 07:22:11;;;;;;;25.10;15.17;;;;;;;5.08;90.07;99329.17;124475;1146;22777;-61
2020/12/30 07:24:59;;;;;;;26.05;15.10;;;;;;;5.07;90.16;99334.80;124586;1147;22677;-61
2020/12/30 07:27:47;;;;;;;22.25;14.70;;;;;;;5.06;89.65;99327.75;124439;1147;22708;-61
2020/12/30 07:30:35;;;;;;;21.00;14.55;;;;;;;5.06;90.22;99316.95;124628;1147;23195;-61
2020/12/30 07:33:23;;;;;;;18.98;13.35;;;;;;;5.06;89.89;99325.05;124581;1146;22731;-61
2020/12/30 07:36:12;;;;;;;17.87;13.28;;;;;;;5.07;89.51;99329.41;124561;1146;22656;-61
2020/12/30 07:39:00;;;;;;;21.85;14.15;;;;;;;5.07;89.64;99319.42;124583;1146;22687;-61
2020/12/30 07:41:47;;;;;;;;;;;;;;;5.08;89.76;99318.38;124508;1146;22689;-61
2020/12/30 07:44:45;;;;;;;18.77;12.75;;;;;;;5.08;89.72;99317.55;124606;1147;21962;-61
2020/12/30 07:47:36;;;;;;;18.83;12.97;;;;;;;5.08;89.87;99320.25;124687;1147;22675;-62
2020/12/30 07:50:24;;;;;;;17.90;12.53;;;;;;;5.07;90.27;99314.02;124647;1147;22687;-62
2020/12/30 07:53:17;;;;;;;17.60;13.55;;;;;;;5.06;90.00;99312.38;124525;1147;22703;-62
2020/12/30 07:56:05;;;;;;;18.70;14.10;;;;;;;5.06;90.10;99315.08;124445;1147;23106;-63
2020/12/30 07:58:53;;;;;;;21.10;14.35;;;;;;;5.08;89.70;99320.25;124446;1146;23398;-63
2020/12/30 08:01:40;;;;;;;20.10;12.75;;;;;;;5.09;89.32;99327.30;124355;1147;23421;-62
2020/12/30 08:04:29;;;;;;;18.75;12.85;;;;;;;5.11;90.04;99326.03;124497;1147;22739;-63
2020/12/30 08:07:16;;;;;;;17.93;13.67;;;;;;;5.12;89.86;99316.88;124416;1148;22766;-62
2020/12/30 08:10:05;;;;;;;19.00;14.05;;;;;;;5.11;89.94;99315.23;124545;1145;22739;-62
2020/12/30 08:12:53;;;;;;;22.25;14.65;;;;;;;5.12;90.13;99319.58;124580;1147;22696;-62
2020/12/30 08:15:51;;;;;;;20.50;13.05;;;;;;;5.13;89.95;99321.23;124326;1147;22692;-62
2020/12/30 08:18:49;;;;;;;20.55;14.40;;;;;;;5.13;89.36;99321.23;124463;1147;23341;-66
2020/12/30 08:21:38;;;;;;;18.35;13.35;;;;;;;5.15;90.52;99321.00;124474;1145;22757;-66
2020/12/30 08:24:28;;;;;;;17.95;13.10;;;;;;;5.15;89.95;99321.83;124254;1148;22764;-62
2020/12/30 08:27:17;;;;;;;20.97;13.53;;;;;;;5.17;89.74;99327.01;124328;1147;22701;-66
2020/12/30 08:30:16;;;;;;;18.45;11.90;;;;;;;5.19;90.10;99323.03;124400;1146;22760;-66
2020/12/30 08:33:07;;;;;;;15.98;12.18;;;;;;;5.22;90.01;99316.33;124371;1147;22763;-66
2020/12/30 08:36:00;;;;;;;19.60;11.85;;;;;;;5.24;90.19;99325.03;124335;1146;22719;-66
2020/12/30 08:38:50;;;;;;;19.00;12.30;;;;;;;5.27;90.47;99328.10;124504;1147;22679;-65
2020/12/30 08:41:46;;;;;;;18.00;13.55;;;;;;;5.29;90.04;99333.28;124329;1147;22697;-65
2020/12/30 08:44:39;;;;;;;18.00;12.20;;;;;;;5.32;89.95;99336.36;124471;1147;22840;-65
2020/12/30 08:47:28;;;;;;;20.75;13.70;;;;;;;5.36;90.04;99325.07;124231;1147;23358;-65
2020/12/30 08:51:03;;;;;;;35.95;23.00;;;;;;;5.37;89.84;99307.81;120143;1147;27270;-65
2020/12/30 08:53:52;;;;;;;27.65;18.70;;;;;;;5.38;90.17;99312.16;120037;1148;22975;-65
2020/12/30 08:56:44;;;;;;;22.40;15.50;;;;;;;5.37;89.92;99314.04;119983;1147;22994;-65
2020/12/30 08:59:32;;;;;;;22.70;15.30;;;;;;;5.34;89.92;99301.81;119991;1148;25954;-65
2020/12/30 09:02:21;;;;;;;22.85;15.25;;;;;;;5.33;89.76;99308.30;119950;1148;22946;-65
2020/12/30 09:05:10;;;;;;;21.25;14.50;;;;;;;5.33;89.79;99312.88;119945;1148;22984;-66
2020/12/30 09:08:11;;;;;;;23.15;15.50;;;;;;;5.31;89.62;99304.99;119934;1148;23027;-66
2020/12/30 09:10:59;;;;;;;21.20;14.00;;;;;;;5.29;89.47;99307.09;124455;1147;22708;-64
2020/12/30 09:13:47;;;;;;;20.10;14.95;;;;;;;5.30;89.79;99295.24;124398;1148;22660;-64
2020/12/30 09:16:34;;;;;;;20.52;14.90;;;;;;;5.31;89.75;99296.89;124451;1147;22679;-64
2020/12/30 09:19:22;;;;;;;21.77;14.90;;;;;;;5.33;89.59;99299.37;124261;1149;23601;-64
2020/12/30 09:22:10;;;;;;;21.27;15.13;;;;;;;5.34;90.10;99290.17;124427;1147;22690;-64
2020/12/30 09:24:59;;;;;;;21.40;15.00;;;;;;;5.36;89.94;99300.76;124434;1147;22694;-64
2020/12/30 09:27:46;;;;;;;20.68;13.80;;;;;;;5.38;89.93;99294.08;124376;1148;22705;-64
2020/12/30 09:30:34;;;;;;;18.80;13.00;;;;;;;5.40;90.11;99281.17;124166;1149;22820;-64
2020/12/30 09:33:25;;;;;;;;;;;;;;;5.42;90.38;99279.06;124345;1148;22705;-64
2020/12/30 09:36:14;;;;;;;21.35;12.35;;;;;;;5.44;90.44;99268.03;124410;1147;21918;-64
2020/12/30 09:39:02;;;;;;;21.35;13.75;;;;;;;5.47;90.32;99278.38;124403;1148;23749;-64
2020/12/30 09:41:50;;;;;;;18.42;12.70;;;;;;;5.49;90.17;99282.47;124376;1147;22686;-64
2020/12/30 09:44:38;;;;;;;24.70;16.30;;;;;;;5.51;90.39;99266.86;124288;1147;23221;-64
2020/12/30 09:47:25;;;;;;;24.25;16.85;;;;;;;5.56;89.78;99266.17;124230;1148;22712;-64
2020/12/30 09:50:14;;;;;;;;;;;;;;;5.58;90.18;99256.78;124450;1147;22767;-64
2020/12/30 09:53:01;;;;;;;23.00;15.30;;;;;;;5.61;90.39;99264.44;124146;1149;22361;-64
2020/12/30 09:55:29;;;;;;;18.55;11.30;;;;;;;5.61;90.44;99259.03;123776;1148;22794;-64
2020/12/30 09:57:59;;;;;;;17.25;12.60;;;;;;;5.64;90.05;99253.14;124275;1148;22717;-64
2020/12/30 10:00:26;;;;;;;17.93;12.23;;;;;;;5.65;90.46;99251.26;124108;1148;22789;-64
2020/12/30 10:02:54;;;;;;;21.33;16.03;;;;;;;5.66;90.30;99258.31;124191;1148;22805;-64
2020/12/30 10:05:21;;;;;;;25.03;15.73;;;;;;;5.67;89.95;99247.27;124091;1148;22765;-64
2020/12/30 10:07:48;;;;;;;19.73;14.17;;;;;;;5.69;89.68;99260.56;124140;1146;23494;-64
2020/12/30 10:10:16;;;;;;;23.75;15.00;;;;;;;5.70;90.06;99256.80;124053;1146;22692;-64
2020/12/30 10:12:48;;;;;;;18.30;12.75;;;;;;;5.74;90.34;99254.46;124081;1148;22688;-64
2020/12/30 10:15:17;;;;;;;19.67;13.43;;;;;;;5.76;89.58;99258.59;124157;1148;22721;-64
2020/12/30 10:17:45;;;;;;;22.97;14.77;;;;;;;5.79;90.32;99247.28;124127;1149;23627;-64
2020/12/30 10:20:12;;;;;;;22.87;14.53;;;;;;;5.82;89.83;99238.71;124182;1148;22707;-64
2020/12/30 10:22:40;;;;;;;22.55;13.05;;;;;;;5.86;90.35;99248.01;124086;1146;22684;-64
2020/12/30 10:25:15;;;;;;;25.35;16.95;;;;;;;5.88;90.32;99250.48;124374;1147;22765;-64
2020/12/30 10:27:44;;;;;;;26.33;15.43;;;;;;;5.90;90.47;99238.41;123968;1149;22701;-64
2020/12/30 10:30:13;;;;;;;21.75;15.25;;;;;;;5.92;89.54;99238.97;124307;1147;22736;-64
2020/12/30 10:32:40;;;;;;;25.50;16.05;;;;;;;5.94;89.92;99231.45;124089;1147;23385;-64
2020/12/30 10:35:10;;;;;;;30.45;18.05;;;;;;;5.94;89.37;99223.34;124189;1149;23024;-63
2020/12/30 10:37:38;;;;;;;35.35;20.65;;;;;;;5.92;89.37;99219.22;124025;1147;23262;-64
2020/12/30 10:40:05;;;;;;;38.50;19.30;;;;;;;5.91;89.46;99220.30;124340;1147;22712;-64
2020/12/30 10:42:33;;;;;;;51.30;26.40;;;;;;;5.92;90.08;99219.22;124059;1146;22667;-64
2020/12/30 10:45:00;;;;;;;50.75;25.25;;;;;;;5.93;89.18;99221.69;124354;1146;22682;-64
2020/12/30 10:47:28;;;;;;;28.00;15.90;;;;;;;5.96;89.87;99215.00;124139;1146;22758;-64
2020/12/30 10:49:55;;;;;;;38.45;19.10;;;;;;;5.96;90.28;99210.41;124273;1147;22728;-64
2020/12/30 10:52:23;;;;;;;35.85;19.10;;;;;;;5.98;89.72;99213.70;124158;1147;22691;-64
2020/12/30 10:54:59;;;;;;;53.05;32.50;;;;;;;6.01;89.57;99213.24;124189;1145;22681;-64
2020/12/30 10:57:26;;;;;;;41.53;25.60;;;;;;;6.03;89.21;99213.01;124106;1148;22777;-64
2020/12/30 10:59:54;;;;;;;27.83;17.90;;;;;;;6.04;89.93;99201.14;124324;1147;22692;-64
2020/12/30 11:02:21;;;;;;;25.55;17.45;;;;;;;6.07;90.14;99195.23;124053;1146;22803;-64
2020/12/30 11:04:49;;;;;;;21.97;15.20;;;;;;;6.09;89.93;99189.59;124238;1147;22808;-64
2020/12/30 11:07:17;;;;;;;17.95;13.05;;;;;;;6.09;89.41;99195.82;120111;1147;27610;-64
2020/12/30 11:09:45;;;;;;;24.00;15.60;;;;;;;6.08;89.43;99193.34;119496;1148;23361;-63
2020/12/30 11:12:24;;;;;;;22.87;16.03;;;;;;;6.09;89.73;99181.47;124343;1148;23539;-64
2020/12/30 11:14:52;;;;;;;26.95;17.70;;;;;;;6.10;90.00;99183.13;124186;1147;22809;-64
2020/12/30 11:17:20;;;;;;;23.00;14.10;;;;;;;6.12;89.62;99187.23;124207;1148;22757;-64
2020/12/30 11:19:47;;;;;;;22.05;13.45;;;;;;;6.13;89.35;99188.89;124097;1148;22689;-64
2020/12/30 11:22:15;;;;;;;20.70;11.90;;;;;;;6.14;89.89;99181.59;124370;1147;22663;-64
2020/12/30 11:24:42;;;;;;;19.75;11.30;;;;;;;6.15;89.92;99181.36;124075;1145;22726;-64
2020/12/30 11:27:09;;;;;;;22.30;12.55;;;;;;;6.14;89.54;99177.02;124135;1148;22764;-64
2020/12/30 11:29:37;;;;;;;17.80;11.93;;;;;;;6.12;89.45;99171.02;124069;1145;22713;-65
2020/12/30 11:32:04;;;;;;;17.17;11.77;;;;;;;6.12;89.24;99164.78;124172;1146;22739;-64
2020/12/30 11:34:32;;;;;;;19.20;11.80;;;;;;;6.12;89.97;99165.60;124165;1147;22661;-64
2020/12/30 11:36:59;;;;;;;18.45;10.10;;;;;;;6.13;89.25;99159.14;124119;1146;22711;-64
2020/12/30 11:39:27;;;;;;;23.10;13.80;;;;;;;6.14;89.33;99154.55;124083;1148;23487;-64
2020/12/30 11:41:54;;;;;;;22.87;13.50;;;;;;;6.13;89.67;99161.02;124366;1147;22672;-64
2020/12/30 11:44:22;;;;;;;15.05;10.30;;;;;;;6.13;88.84;99156.43;124067;1146;22673;-64
2020/12/30 11:46:51;;;;;;;15.05;9.60;;;;;;;6.13;89.15;99166.42;124152;1148;22758;-64
2020/12/30 11:49:19;;;;;;;13.65;9.65;;;;;;;6.13;89.44;99164.55;124132;1147;23370;-67
2020/12/30 11:51:47;;;;;;;13.25;9.40;;;;;;;6.15;89.17;99167.84;124286;1148;22701;-64
2020/12/30 11:54:15;;;;;;;21.50;10.10;;;;;;;6.14;88.70;99168.89;124098;1145;22794;-64
2020/12/30 11:56:43;;;;;;;17.30;10.55;;;;;;;6.16;89.06;99160.55;124116;1147;22764;-64
2020/12/30 11:59:10;;;;;;;18.60;11.40;;;;;;;6.18;89.53;99166.55;124345;1145;22677;-64
2020/12/30 12:01:38;;;;;;;15.35;10.15;;;;;;;6.19;89.19;99166.31;124040;1146;23586;-64
2020/12/30 12:04:05;;;;;;;13.25;9.60;;;;;;;6.21;89.00;99163.34;124301;1148;22758;-64
2020/12/30 12:06:33;;;;;;;17.70;11.07;;;;;;;6.21;88.73;99160.63;124126;1147;22676;-64
2020/12/30 12:09:00;;;;;;;14.40;10.65;;;;;;;6.20;89.17;99157.14;124275;1146;22767;-65
2020/12/30 12:11:31;;;;;;;15.00;10.55;;;;;;;6.22;88.68;99163.10;124048;1146;22738;-66
2020/12/30 12:13:58;;;;;;;14.05;8.95;;;;;;;6.24;88.70;99162.87;124330;1148;22720;-66
2020/12/30 12:16:26;;;;;;;14.75;8.65;;;;;;;6.24;89.23;99154.75;124061;1147;22688;-66
2020/12/30 12:18:53;;;;;;;26.45;16.80;;;;;;;6.24;88.77;99152.05;124135;1148;22772;-66
2020/12/30 12:21:21;;;;;;;31.25;11.90;;;;;;;6.24;88.71;99155.58;124151;1145;22742;-66
2020/12/30 12:23:48;;;;;;;41.90;18.13;;;;;;;6.26;89.17;99156.16;124226;1146;22755;-64
2020/12/30 12:26:27;;;;;;;16.90;10.97;;;;;;;6.27;89.19;99157.81;124042;1147;23170;-64
2020/12/30 12:28:54;;;;;;;18.70;12.30;;;;;;;6.29;88.35;99147.58;124171;1146;23437;-64
2020/12/30 12:31:21;;;;;;;23.50;12.50;;;;;;;6.29;88.64;99157.58;124233;1147;22702;-64
2020/12/30 12:33:49;;;;;;;29.60;13.20;;;;;;;6.32;88.40;99141.70;124281;1147;22781;-65
2020/12/30 12:36:16;;;;;;;16.05;10.65;;;;;;;6.34;88.92;99149.58;124174;1146;22791;-65
2020/12/30 12:38:44;;;;;;;26.45;15.30;;;;;;;6.33;88.98;99143.34;124228;1147;23328;-65
2020/12/30 12:41:13;;;;;;;24.37;11.37;;;;;;;6.32;88.48;99152.52;124192;1148;22836;-65